sensor_id;sensor_type;location;lat;lon;timestamp;pressure;altitude;pressure_sealevel;temperature;humidity
58775;BME280;44545;47.480;19.024;2022-11-18T06:15:44;98631.19;;;7.74;100.00
58775;BME280;44545;47.480;19.024;2022-11-18T06:18:47;98631.19;;;7.74;100.00
58775;BME280;44545;47.480;19.024;2022-11-18T06:21:49;98631.56;;;7.15;100.00
58775;BME280;44545;47.480;19.024;2022-11-18T06:24:52;98626.69;;;7.23;100.00
58775;BME280;44545;47.480;19.024;2022-11-18T06:27:56;98625.56;;;7.16;100.00
58775;BME280;44545;47.480;19.024;2022-11-18T06:31:00;98622.56;;;7.28;100.00
58775;BME280;44545;47.480;19.024;2022-11-18T06:34:02;98624.75;;;7.40;100.00
58775;BME280;44545;47.480;19.024;2022-11-18T06:37:18;98625.06;;;7.49;100.00
58775;BME280;44545;47.480;19.024;2022-11-18T06:40:24;98619.78;;;7.46;100.00
58775;BME280;44545;47.480;19.024;2022-11-18T06:43:28;98616.91;;;7.38;100.00
58775;BME280;44545;47.480;19.024;2022-11-18T06:46:39;98615.59;;;7.50;100.00
58775;BME280;44545;47.480;19.024;2022-11-18T06:49:56;98618.25;;;7.51;100.00
58775;BME280;44545;47.480;19.024;2022-11-18T06:52:59;98623.59;;;7.56;100.00
58775;BME280;44545;47.480;19.024;2022-11-18T06:56:07;98621.78;;;7.53;100.00
58775;BME280;44545;47.480;19.024;2022-11-18T06:59:10;98628.41;;;7.45;100.00
58775;BME280;44545;47.480;19.024;2022-11-18T07:02:12;98626.59;;;7.44;100.00
58775;BME280;44545;47.480;19.024;2022-11-18T07:05:15;98629.56;;;7.53;100.00
58775;BME280;44545;47.480;19.024;2022-11-18T07:08:18;98625.31;;;7.55;100.00
58775;BME280;44545;47.480;19.024;2022-11-18T07:11:22;98624.94;;;7.45;100.00
58775;BME280;44545;47.480;19.024;2022-11-18T07:14:24;98621.66;;;7.50;100.00
58775;BME280;44545;47.480;19.024;2022-11-18T07:17:29;98625.06;;;7.49;100.00
58775;BME280;44545;47.480;19.024;2022-11-18T07:20:33;98622.72;;;7.55;100.00
58775;BME280;44545;47.480;19.024;2022-11-18T07:23:36;98617.53;;;7.55;100.00
58775;BME280;44545;47.480;19.024;2022-11-18T07:26:39;98618.94;;;7.70;100.00
58775;BME280;44545;47.480;19.024;2022-11-18T07:29:41;98609.84;;;7.81;100.00
58775;BME280;44545;47.480;19.024;2022-11-18T07:32:43;98615.47;;;7.93;100.00
58775;BME280;44545;47.480;19.024;2022-11-18T07:35:45;98613.94;;;7.98;100.00
58775;BME280;44545;47.480;19.024;2022-11-18T07:38:48;98610.59;;;7.78;100.00
58775;BME280;44545;47.480;19.024;2022-11-18T07:41:51;98603.69;;;7.79;100.00
58775;BME280;44545;47.480;19.024;2022-11-18T07:44:53;98603.44;;;7.95;100.00
58775;BME280;44545;47.480;19.024;2022-11-18T07:47:55;98595.25;;;7.85;100.00
58775;BME280;44545;47.480;19.024;2022-11-18T07:50:59;98581.28;;;7.81;100.00
58775;BME280;44545;47.480;19.024;2022-11-18T07:54:19;98572.50;;;8.01;100.00
58775;BME280;44545;47.480;19.024;2022-11-18T07:57:22;98577.09;;;8.09;100.00
58775;BME280;44545;47.480;19.024;2022-11-18T08:00:24;98582.87;;;8.01;100.00
58775;BME280;44545;47.480;19.024;2022-11-18T08:03:27;98576.97;;;8.06;100.00
58775;BME280;44545;47.480;19.024;2022-11-18T08:06:31;98568.16;;;8.00;100.00
58775;BME280;44545;47.480;19.024;2022-11-18T08:09:34;98584.59;;;8.01;100.00
58775;BME280;44545;47.480;19.024;2022-11-18T08:12:36;98586.94;;;7.93;100.00
58775;BME280;44545;47.480;19.024;2022-11-18T08:15:42;98600.69;;;7.91;100.00
58775;BME280;44545;47.480;19.024;2022-11-18T08:18:45;98588.09;;;7.77;100.00
58775;BME280;44545;47.480;19.024;2022-11-18T08:21:48;98587.94;;;7.73;100.00
58775;BME280;44545;47.480;19.024;2022-11-18T08:24:50;98584.84;;;7.83;100.00
58775;BME280;44545;47.480;19.024;2022-11-18T08:27:52;98590.41;;;7.94;100.00
58775;BME280;44545;47.480;19.024;2022-11-18T08:30:54;98588.59;;;7.91;100.00
58775;BME280;44545;47.480;19.024;2022-11-18T08:34:04;98584.94;;;7.86;100.00
58775;BME280;44545;47.480;19.024;2022-11-18T08:37:06;98579.41;;;7.77;100.00
58775;BME280;44545;47.480;19.024;2022-11-18T08:40:09;98568.25;;;7.79;100.00
58775;BME280;44545;47.480;19.024;2022-11-18T08:43:11;98565.63;;;7.78;100.00
58775;BME280;44545;47.480;19.024;2022-11-18T08:46:14;98559.50;;;7.76;100.00
58775;BME280;44545;47.480;19.024;2022-11-18T08:49:16;98552.91;;;7.86;100.00
58775;BME280;44545;47.480;19.024;2022-11-18T08:52:19;98554.34;;;8.01;100.00
58775;BME280;44545;47.480;19.024;2022-11-18T08:55:21;98550.97;;;8.04;100.00
58775;BME280;44545;47.480;19.024;2022-11-18T08:58:24;98542.50;;;8.10;100.00
58775;BME280;44545;47.480;19.024;2022-11-18T09:01:27;98537.00;;;8.00;100.00
58775;BME280;44545;47.480;19.024;2022-11-18T09:04:29;98548.81;;;7.92;100.00
58775;BME280;44545;47.480;19.024;2022-11-18T09:07:31;98546.00;;;7.86;100.00
58775;BME280;44545;47.480;19.024;2022-11-18T09:10:36;98540.56;;;7.78;100.00
58775;BME280;44545;47.480;19.024;2022-11-18T09:13:38;98543.59;;;7.91;100.00
58775;BME280;44545;47.480;19.024;2022-11-18T09:17:01;98555.97;;;7.99;100.00
58775;BME280;44545;47.480;19.024;2022-11-18T09:20:03;98562.28;;;7.82;100.00
58775;BME280;44545;47.480;19.024;2022-11-18T09:23:06;98565.63;;;7.78;100.00
58775;BME280;44545;47.480;19.024;2022-11-18T09:26:11;98556.03;;;7.75;100.00
58775;BME280;44545;47.480;19.024;2022-11-18T09:29:14;98548.41;;;7.80;100.00
58775;BME280;44545;47.480;19.024;2022-11-18T09:32:16;98542.81;;;7.69;100.00
58775;BME280;44545;47.480;19.024;2022-11-18T09:35:18;98545.31;;;7.66;100.00
58775;BME280;44545;47.480;19.024;2022-11-18T09:38:20;98538.56;;;7.71;100.00
58775;BME280;44545;47.480;19.024;2022-11-18T09:44:43;98526.75;;;7.55;100.00
58775;BME280;44545;47.480;19.024;2022-11-18T09:47:47;98523.56;;;7.63;100.00
58775;BME280;44545;47.480;19.024;2022-11-18T09:50:49;98527.16;;;7.66;100.00
58775;BME280;44545;47.480;19.024;2022-11-18T09:53:52;98525.81;;;7.53;100.00
58775;BME280;44545;47.480;19.024;2022-11-18T09:56:54;98529.53;;;7.60;100.00
58775;BME280;44545;47.480;19.024;2022-11-18T09:59:57;98516.25;;;7.76;100.00
58775;BME280;44545;47.480;19.024;2022-11-18T10:03:02;98509.34;;;7.77;100.00
58775;BME280;44545;47.480;19.024;2022-11-18T10:09:32;98486.25;;;7.85;100.00
58775;BME280;44545;47.480;19.024;2022-11-18T10:13:01;98482.38;;;7.97;100.00
58775;BME280;44545;47.480;19.024;2022-11-18T10:19:43;98476.13;;;7.91;100.00
58775;BME280;44545;47.480;19.024;2022-11-18T10:22:57;98478.09;;;7.98;100.00
58775;BME280;44545;47.480;19.024;2022-11-18T10:26:04;98483.03;;;7.90;100.00
58775;BME280;44545;47.480;19.024;2022-11-18T10:29:07;98481.47;;;7.70;100.00
58775;BME280;44545;47.480;19.024;2022-11-18T10:32:16;98471.28;;;7.76;100.00
58775;BME280;44545;47.480;19.024;2022-11-18T10:35:37;98463.03;;;7.88;100.00
58775;BME280;44545;47.480;19.024;2022-11-18T10:38:40;98462.66;;;8.02;100.00
58775;BME280;44545;47.480;19.024;2022-11-18T10:41:52;98461.69;;;7.99;100.00
58775;BME280;44545;47.480;19.024;2022-11-18T10:48:17;98457.88;;;7.89;100.00
58775;BME280;44545;47.480;19.024;2022-11-18T10:51:22;98460.53;;;7.91;100.00
58775;BME280;44545;47.480;19.024;2022-11-18T10:54:25;98457.94;;;7.91;100.00
58775;BME280;44545;47.480;19.024;2022-11-18T10:57:29;98457.84;;;7.88;100.00
58775;BME280;44545;47.480;19.024;2022-11-18T11:00:40;98458.91;;;7.69;100.00
58775;BME280;44545;47.480;19.024;2022-11-18T11:03:59;98452.94;;;7.71;100.00
58775;BME280;44545;47.480;19.024;2022-11-18T11:07:34;98454.75;;;7.72;100.00
58775;BME280;44545;47.480;19.024;2022-11-18T11:10:37;98442.41;;;7.67;100.00
58775;BME280;44545;47.480;19.024;2022-11-18T11:17:30;98451.13;;;7.69;100.00
58775;BME280;44545;47.480;19.024;2022-11-18T11:20:35;98457.28;;;7.71;100.00
58775;BME280;44545;47.480;19.024;2022-11-18T11:23:38;98455.38;;;7.67;100.00
58775;BME280;44545;47.480;19.024;2022-11-18T11:26:55;98466.38;;;7.59;100.00
58775;BME280;44545;47.480;19.024;2022-11-18T11:30:22;98458.91;;;7.43;100.00
58775;BME280;44545;47.480;19.024;2022-11-18T11:33:38;98471.41;;;7.55;100.00
58775;BME280;44545;47.480;19.024;2022-11-18T11:36:55;98472.50;;;7.62;100.00
58775;BME280;44545;47.480;19.024;2022-11-18T11:43:34;98469.13;;;7.64;100.00
58775;BME280;44545;47.480;19.024;2022-11-18T11:47:08;98469.25;;;7.67;100.00
58775;BME280;44545;47.480;19.024;2022-11-18T11:50:57;98462.03;;;7.58;100.00
58775;BME280;44545;47.480;19.024;2022-11-18T11:54:37;98451.19;;;7.45;100.00
